Time;durP1;ratioP1;P1;durP2;ratioP2;P2;SDS_P1;SDS_P2;PMS_P1;PMS_P2;Temp;Humidity;BMP_temperature;BMP_pressure;BME280_temperature;BME280_humidity;BME280_pressure;Samples;Min_cycle;Max_cycle;Signal;HPM_P1;HPM_P2
2021/05/17 00:00:42;;;;;;;11.68;2.30;;;13.20;99.90;;;;;;5029455;28;20040;-66
2021/05/17 00:03:49;;;;;;;10.63;2.50;;;13.30;99.90;;;;;;5029887;28;20048;-67
2021/05/17 00:06:54;;;;;;;8.68;2.75;;;13.20;99.90;;;;;;5018055;28;20052;-66
2021/05/17 00:09:58;;;;;;;11.60;2.58;;;13.30;99.90;;;;;;5028822;28;20044;-67
2021/05/17 00:13:03;;;;;;;13.60;2.72;;;13.30;99.90;;;;;;5030047;28;20054;-66
2021/05/17 00:16:08;;;;;;;10.70;2.40;;;13.30;99.90;;;;;;5029797;28;20094;-67
2021/05/17 00:19:13;;;;;;;16.77;2.88;;;13.40;99.90;;;;;;5026129;28;20041;-66
2021/05/17 00:22:17;;;;;;;10.32;3.47;;;13.40;99.90;;;;;;5026566;28;20052;-67
2021/05/17 00:25:26;;;;;;;10.32;3.00;;;13.50;99.90;;;;;;5010652;28;20049;-65
2021/05/17 00:28:30;;;;;;;8.27;2.47;;;13.40;99.90;;;;;;5019436;28;20045;-66
2021/05/17 00:31:38;;;;;;;7.65;2.47;;;13.40;99.90;;;;;;5029449;28;20108;-66
2021/05/17 00:35:00;;;;;;;7.38;2.40;;;13.50;99.90;;;;;;5020298;28;20048;-66
2021/05/17 00:38:05;;;;;;;14.85;3.53;;;13.50;99.90;;;;;;5019320;28;20048;-67
2021/05/17 00:41:10;;;;;;;9.00;2.65;;;13.50;99.90;;;;;;5033687;28;20048;-67
2021/05/17 00:44:14;;;;;;;14.30;2.63;;;13.60;99.90;;;;;;5033538;28;20052;-66
2021/05/17 00:47:18;;;;;;;25.50;4.35;;;13.60;99.90;;;;;;5032439;28;20036;-66
2021/05/17 00:50:26;;;;;;;7.60;2.10;;;13.60;99.90;;;;;;5020865;28;20052;-65
2021/05/17 00:53:31;;;;;;;12.57;2.90;;;13.70;99.90;;;;;;5026866;28;20798;-66
2021/05/17 00:56:35;;;;;;;9.82;3.00;;;13.70;99.90;;;;;;5013459;28;20045;-66
2021/05/17 00:59:39;;;;;;;8.43;2.50;;;13.70;99.90;;;;;;5012325;28;20041;-67
2021/05/17 01:02:45;;;;;;;14.93;2.53;;;13.70;99.90;;;;;;5012541;28;20552;-67
2021/05/17 01:06:08;;;;;;;9.40;2.92;;;13.80;99.90;;;;;;5013731;28;20048;-66
2021/05/17 01:09:15;;;;;;;12.35;3.22;;;13.90;99.90;;;;;;5012416;28;20057;-66
2021/05/17 01:12:24;;;;;;;12.45;2.88;;;13.90;99.90;;;;;;5001409;28;20049;-67
2021/05/17 01:15:31;;;;;;;10.75;2.60;;;13.90;99.90;;;;;;5013401;28;20451;-67
2021/05/17 01:18:35;;;;;;;10.25;2.60;;;14.00;99.90;;;;;;5012285;28;20073;-67
2021/05/17 01:21:52;;;;;;;14.82;2.70;;;14.00;99.90;;;;;;5013043;28;20065;-67
2021/05/17 01:24:58;;;;;;;6.22;2.13;;;14.10;99.90;;;;;;5000001;28;20053;-67
2021/05/17 01:28:03;;;;;;;15.43;2.75;;;14.10;99.90;;;;;;5019735;28;20056;-67
2021/05/17 01:31:09;;;;;;;11.57;2.45;;;14.20;99.90;;;;;;5020285;28;20515;-67
2021/05/17 01:34:15;;;;;;;16.52;3.42;;;14.20;99.90;;;;;;5032236;28;20396;-67
2021/05/17 01:37:25;;;;;;;14.93;3.88;;;14.30;99.90;;;;;;5032503;28;20056;-68
2021/05/17 01:40:31;;;;;;;14.70;3.17;;;14.30;99.90;;;;;;5019301;28;20385;-68
2021/05/17 01:43:48;;;;;;;12.43;3.08;;;14.30;99.90;;;;;;5032355;28;20522;-68
2021/05/17 01:46:54;;;;;;;16.63;3.55;;;14.30;99.90;;;;;;5020065;28;20043;-68
2021/05/17 01:49:59;;;;;;;8.52;2.40;;;14.20;99.90;;;;;;4999557;28;20404;-68
2021/05/17 01:53:05;;;;;;;16.60;3.90;;;14.30;99.90;;;;;;5012073;28;20048;-68
2021/05/17 01:56:10;;;;;;;8.55;2.28;;;14.20;99.90;;;;;;5000294;28;20053;-67
2021/05/17 01:59:27;;;;;;;10.80;3.20;;;14.40;99.90;;;;;;5012155;28;20073;-68
2021/05/17 02:02:32;;;;;;;11.45;2.72;;;14.40;99.90;;;;;;5012114;28;20037;-68
2021/05/17 02:05:37;;;;;;;9.82;2.80;;;14.40;99.90;;;;;;5012034;28;20057;-68
2021/05/17 02:08:48;;;;;;;16.38;2.60;;;14.50;99.90;;;;;;5010984;28;20045;-68
2021/05/17 02:11:54;;;;;;;14.00;3.90;;;14.40;99.90;;;;;;4999733;28;20048;-68
2021/05/17 02:15:21;;;;;;;12.40;3.22;;;14.50;99.90;;;;;;5012280;28;20105;-68
2021/05/17 02:18:27;;;;;;;9.82;2.67;;;14.40;99.90;;;;;;4999531;28;20064;-69
2021/05/17 02:21:31;;;;;;;9.10;2.40;;;14.30;99.90;;;;;;5010585;28;20048;-69
2021/05/17 02:24:35;;;;;;;11.85;3.22;;;14.20;99.90;;;;;;5009643;28;20049;-69
2021/05/17 02:27:43;;;;;;;11.07;2.63;;;14.20;99.90;;;;;;5014459;28;20045;-68
2021/05/17 02:30:47;;;;;;;11.60;2.67;;;14.30;99.90;;;;;;5030164;28;20056;-68
2021/05/17 02:33:53;;;;;;;10.15;3.20;;;14.20;99.90;;;;;;4999216;28;20048;-68
2021/05/17 02:36:58;;;;;;;16.05;2.65;;;14.30;99.90;;;;;;5010891;28;20044;-68
2021/05/17 02:40:04;;;;;;;11.82;2.65;;;14.30;99.90;;;;;;4998239;28;20069;-69
2021/05/17 02:43:12;;;;;;;14.55;2.65;;;14.30;99.90;;;;;;5010279;28;20118;-68
2021/05/17 02:46:31;;;;;;;11.88;2.72;;;14.30;99.90;;;;;;4999760;28;20040;-69
2021/05/17 02:49:36;;;;;;;9.85;2.50;;;14.20;99.90;;;;;;5009955;28;20037;-69
2021/05/17 02:52:44;;;;;;;18.98;2.95;;;14.20;99.90;;;;;;5011510;28;20508;-69
2021/05/17 02:55:57;;;;;;;10.73;2.85;;;14.20;99.90;;;;;;4999849;28;20393;-69
2021/05/17 02:59:03;;;;;;;13.82;2.70;;;14.10;99.90;;;;;;5010489;28;20052;-68
2021/05/17 03:02:16;;;;;;;7.80;2.25;;;14.10;99.90;;;;;;4998937;28;20247;-68
2021/05/17 03:05:21;;;;;;;13.95;2.42;;;14.20;99.90;;;;;;4998835;28;20056;-68
2021/05/17 03:08:28;;;;;;;11.30;2.40;;;14.30;99.90;;;;;;5009922;28;20401;-68
2021/05/17 03:11:46;;;;;;;19.63;3.08;;;14.30;99.90;;;;;;5013554;28;20053;-68
2021/05/17 03:14:55;;;;;;;17.90;2.90;;;14.30;99.90;;;;;;5018607;28;20052;-68
2021/05/17 03:18:00;;;;;;;9.52;2.67;;;14.30;99.90;;;;;;5030533;28;20056;-69
2021/05/17 03:21:05;;;;;;;18.60;3.05;;;14.20;99.90;;;;;;5029931;28;20052;-68
2021/05/17 03:24:10;;;;;;;9.90;2.80;;;14.20;99.90;;;;;;5029547;28;20048;-68
2021/05/17 03:27:22;;;;;;;8.15;2.53;;;14.30;99.90;;;;;;5030339;28;20396;-67
2021/05/17 03:30:26;;;;;;;8.00;3.00;;;14.30;99.90;;;;;;5029396;28;20045;-68
2021/05/17 03:33:31;;;;;;;15.98;3.08;;;14.40;99.90;;;;;;5030233;28;20773;-68
2021/05/17 03:36:38;;;;;;;21.85;3.65;;;14.40;99.90;;;;;;5030401;28;20049;-68
2021/05/17 03:39:47;;;;;;;12.52;3.42;;;14.30;99.90;;;;;;5029635;28;20393;-68
2021/05/17 03:42:52;;;;;;;14.63;3.95;;;14.20;99.90;;;;;;5017884;28;20068;-69
2021/05/17 03:45:56;;;;;;;10.77;2.97;;;14.20;99.90;;;;;;5017957;28;20059;-68
2021/05/17 03:48:59;;;;;;;15.43;3.97;;;14.10;99.90;;;;;;5029468;28;20511;-68
2021/05/17 03:52:04;;;;;;;11.23;3.47;;;14.10;99.90;;;;;;5029470;28;20036;-67
2021/05/17 03:55:09;;;;;;;11.90;3.47;;;14.10;99.90;;;;;;5028936;28;20040;-67
2021/05/17 03:58:13;;;;;;;16.48;3.95;;;14.00;99.90;;;;;;5030044;28;20048;-67
2021/05/17 04:01:18;;;;;;;12.70;4.57;;;14.00;99.90;;;;;;5029320;28;20047;-67
2021/05/17 04:04:23;;;;;;;8.85;3.80;;;14.10;99.90;;;;;;5017683;28;20048;-68
2021/05/17 04:29:30;;;;;;;14.93;2.47;;;13.80;99.90;;;;;;5018722;28;20385;-67
2021/05/17 04:32:34;;;;;;;12.45;2.03;;;13.80;99.90;;;;;;5025140;28;20044;-67
2021/05/17 04:35:38;;;;;;;7.15;2.15;;;13.80;99.90;;;;;;5029960;28;20496;-67
2021/05/17 04:38:43;;;;;;;11.05;1.80;;;13.80;99.90;;;;;;5028910;28;20076;-67
2021/05/17 04:41:49;;;;;;;11.10;2.08;;;13.70;99.90;;;;;;5029342;28;20049;-66
2021/05/17 04:44:53;;;;;;;9.57;1.80;;;13.70;99.90;;;;;;5018009;28;20053;-66
2021/05/17 04:47:57;;;;;;;16.50;1.98;;;13.80;99.90;;;;;;5009938;28;20049;-68
2021/05/17 04:51:01;;;;;;;8.40;1.75;;;13.80;99.90;;;;;;5009866;28;20073;-67
2021/05/17 04:54:05;;;;;;;7.95;1.70;;;13.70;99.90;;;;;;5008006;28;20045;-67
2021/05/17 04:57:09;;;;;;;8.88;1.85;;;13.80;99.90;;;;;;5010025;28;20499;-66
2021/05/17 05:00:14;;;;;;;7.55;1.67;;;13.80;99.90;;;;;;5009567;28;20049;-67
2021/05/17 05:03:19;;;;;;;6.72;1.85;;;13.70;99.90;;;;;;5039934;28;20508;-67
2021/05/17 05:06:23;;;;;;;5.55;1.88;;;13.80;99.90;;;;;;5029164;28;20389;-67
2021/05/17 05:09:27;;;;;;;8.25;1.80;;;14.00;99.90;;;;;;5030200;28;20052;-67
2021/05/17 05:12:31;;;;;;;8.27;1.90;;;15.00;99.90;;;;;;5013833;28;20062;-67
2021/05/17 05:15:36;;;;;;;9.68;1.95;;;15.90;99.90;;;;;;5009435;28;20401;-67
2021/05/17 05:18:41;;;;;;;9.20;1.65;;;15.80;99.90;;;;;;5018883;28;20049;-67
2021/05/17 05:21:45;;;;;;;6.78;1.55;;;16.30;99.90;;;;;;5011427;28;20404;-67
2021/05/17 05:24:49;;;;;;;5.68;1.40;;;16.40;99.90;;;;;;5031392;28;20354;-66
2021/05/17 05:27:56;;;;;;;12.30;1.75;;;16.10;99.90;;;;;;5014281;28;20041;-67
2021/05/17 05:31:13;;;;;;;10.15;1.63;;;15.30;99.90;;;;;;5011547;28;20397;-67
2021/05/17 05:34:18;;;;;;;9.05;1.80;;;15.40;99.90;;;;;;5033485;28;20388;-68
2021/05/17 05:37:23;;;;;;;8.68;1.55;;;15.30;99.90;;;;;;5033771;28;20064;-68
2021/05/17 05:40:28;;;;;;;8.70;1.25;;;15.30;99.90;;;;;;5051455;28;20048;-67
2021/05/17 05:43:32;;;;;;;14.60;1.67;;;15.40;99.90;;;;;;5017425;28;20044;-67
2021/05/17 05:46:37;;;;;;;6.47;1.42;;;15.40;99.90;;;;;;5013781;28;20033;-66
2021/05/17 05:49:47;;;;;;;8.18;1.05;;;15.40;99.90;;;;;;5008728;28;20041;-67
2021/05/17 05:52:51;;;;;;;11.95;2.33;;;15.20;99.90;;;;;;5026872;28;20028;-67
2021/05/17 05:55:55;;;;;;;8.25;1.77;;;15.00;99.90;;;;;;5024593;28;20044;-67
2021/05/17 05:58:59;;;;;;;9.68;2.00;;;15.00;99.90;;;;;;5037059;28;20055;-67
2021/05/17 06:02:05;;;;;;;14.57;1.52;;;14.90;99.90;;;;;;5017023;28;20048;-67
2021/05/17 06:05:09;;;;;;;6.82;1.80;;;15.10;99.90;;;;;;5024139;28;20045;-67
2021/05/17 06:08:13;;;;;;;8.30;1.67;;;15.10;99.90;;;;;;5010948;28;20045;-67
2021/05/17 06:11:17;;;;;;;10.63;2.53;;;15.20;99.90;;;;;;5018446;28;20403;-67
2021/05/17 06:14:24;;;;;;;15.65;2.35;;;15.40;99.90;;;;;;5011539;28;20491;-67
2021/05/17 06:17:28;;;;;;;14.15;1.83;;;15.40;99.90;;;;;;5012072;28;20044;-66
2021/05/17 06:20:33;;;;;;;15.18;3.33;;;15.30;99.90;;;;;;4999415;28;20040;-67
2021/05/17 06:23:39;;;;;;;11.38;2.25;;;15.00;99.90;;;;;;5010199;28;20523;-67
2021/05/17 06:26:43;;;;;;;17.63;2.70;;;15.40;99.90;;;;;;5011918;28;20049;-68
2021/05/17 06:29:48;;;;;;;14.13;2.53;;;15.50;99.90;;;;;;5029768;28;20048;-68
2021/05/17 06:32:53;;;;;;;12.07;2.22;;;15.50;99.90;;;;;;5014019;28;20397;-68
2021/05/17 06:35:59;;;;;;;16.00;2.33;;;15.70;99.90;;;;;;5020278;28;20057;-67
2021/05/17 06:39:06;;;;;;;14.50;2.58;;;15.80;99.90;;;;;;5021998;28;20066;-67
2021/05/17 06:42:11;;;;;;;16.70;2.65;;;16.40;99.90;;;;;;5012780;28;20045;-68
2021/05/17 06:45:16;;;;;;;19.08;3.30;;;16.90;99.90;;;;;;5013146;28;20056;-67
2021/05/17 06:48:20;;;;;;;14.05;2.63;;;16.80;99.90;;;;;;5027759;28;20117;-67
2021/05/17 06:51:26;;;;;;;20.08;3.00;;;16.90;99.90;;;;;;5027801;28;20076;-68
2021/05/17 06:54:32;;;;;;;19.20;3.40;;;17.00;99.90;;;;;;5030397;28;20387;-68
2021/05/17 07:00:44;;;;;;;16.77;2.42;;;18.30;99.90;;;;;;5016564;28;20040;-68
2021/05/17 07:03:50;;;;;;;16.25;3.33;;;19.20;99.90;;;;;;5019307;28;20036;-68
2021/05/17 07:06:58;;;;;;;18.63;2.97;;;19.40;99.90;;;;;;5034007;28;20041;-68
2021/05/17 07:13:26;;;;;;;18.42;3.28;;;19.80;99.90;;;;;;5005103;28;20032;-67
2021/05/17 07:16:30;;;;;;;23.25;3.28;;;19.80;99.90;;;;;;5010947;28;20377;-68
2021/05/17 07:19:34;;;;;;;14.15;3.38;;;19.30;99.90;;;;;;5024932;28;20048;-68
2021/05/17 07:26:04;;;;;;;27.13;4.25;;;18.10;99.90;;;;;;5022539;28;20045;-68
2021/05/17 07:29:11;;;;;;;24.33;3.28;;;18.10;99.90;;;;;;5028624;28;20048;-68
2021/05/17 07:32:15;;;;;;;17.05;3.20;;;18.70;99.90;;;;;;5030157;28;20463;-68
2021/05/17 07:35:19;;;;;;;24.80;3.88;;;20.00;99.90;;;;;;5028847;28;20025;-68
2021/05/17 07:38:28;;;;;;;19.13;3.47;;;20.50;99.90;;;;;;5026273;28;20068;-68
2021/05/17 07:41:32;;;;;;;16.83;2.85;;;20.70;99.90;;;;;;5015651;28;20405;-68
2021/05/17 07:44:37;;;;;;;15.68;3.25;;;20.20;99.90;;;;;;5015690;28;20045;-68
2021/05/17 07:47:42;;;;;;;23.67;2.92;;;19.40;99.90;;;;;;5015826;28;20489;-68
2021/05/17 07:50:46;;;;;;;21.08;3.45;;;18.60;99.90;;;;;;5012172;28;20057;-68
2021/05/17 07:53:51;;;;;;;16.58;3.13;;;17.00;99.90;;;;;;5014764;28;20075;-67
2021/05/17 07:56:55;;;;;;;17.08;3.58;;;16.60;99.90;;;;;;5018465;28;20061;-67
2021/05/17 08:00:00;;;;;;;25.73;3.70;;;17.70;99.90;;;;;;5015928;28;20052;-68
2021/05/17 08:03:04;;;;;;;18.75;3.65;;;17.30;99.90;;;;;;5029679;28;20044;-68
2021/05/17 08:06:09;;;;;;;24.73;3.45;;;18.10;99.90;;;;;;5029645;28;20048;-68
2021/05/17 08:09:13;;;;;;;17.23;3.15;;;18.40;99.90;;;;;;5029042;28;20523;-67
2021/05/17 08:12:18;;;;;;;16.73;3.72;;;18.30;99.90;;;;;;5018917;28;20052;-68
2021/05/17 08:15:22;;;;;;;20.60;3.65;;;19.10;99.90;;;;;;5019241;28;20053;-68
2021/05/17 08:18:27;;;;;;;18.50;4.25;;;19.80;99.90;;;;;;5026413;28;20068;-68
2021/05/17 08:21:31;;;;;;;18.65;3.80;;;20.60;99.90;;;;;;5008757;28;20057;-68
2021/05/17 08:24:36;;;;;;;17.00;3.20;;;21.90;99.90;;;;;;5006937;28;20045;-68
2021/05/17 08:27:42;;;;;;;22.30;3.53;;;22.00;99.90;;;;;;5027295;28;20040;-68
2021/05/17 08:30:46;;;;;;;15.10;3.58;;;21.60;99.90;;;;;;5028133;28;20049;-68
2021/05/17 08:33:51;;;;;;;18.92;3.78;;;21.20;99.90;;;;;;5009311;28;20075;-68
2021/05/17 08:36:59;;;;;;;23.85;3.67;;;21.00;99.90;;;;;;5012296;28;20045;-68
2021/05/17 08:40:04;;;;;;;19.27;3.40;;;20.80;99.90;;;;;;5008763;28;20065;-68
2021/05/17 08:43:09;;;;;;;16.55;3.47;;;23.40;99.90;;;;;;5009465;28;20045;-68
2021/05/17 08:46:15;;;;;;;16.38;3.22;;;25.10;99.90;;;;;;5028739;28;20084;-68
2021/05/17 08:49:20;;;;;;;16.90;3.08;;;25.80;99.90;;;;;;5020319;28;20049;-69
2021/05/17 08:52:25;;;;;;;15.23;3.05;;;24.20;96.70;;;;;;5022765;28;20044;-67
2021/05/17 08:55:30;;;;;;;17.30;3.08;;;20.80;99.90;;;;;;5013168;28;20048;-68
2021/05/17 08:58:34;;;;;;;12.80;3.22;;;20.50;99.90;;;;;;5030577;28;20056;-69
2021/05/17 09:01:38;;;;;;;18.05;3.53;;;20.40;99.90;;;;;;5032342;28;20048;-67
2021/05/17 09:05:19;;;;;;;17.00;2.97;;;19.20;99.90;;;;;;5014275;28;20049;-68
2021/05/17 09:08:25;;;;;;;17.65;2.85;;;18.00;99.90;;;;;;5019378;28;20535;-68
2021/05/17 09:11:32;;;;;;;10.43;2.67;;;18.70;99.90;;;;;;5027471;28;20048;-68
2021/05/17 09:14:37;;;;;;;19.48;2.72;;;20.30;99.90;;;;;;5019510;28;20040;-68
2021/05/17 09:17:54;;;;;;;15.55;2.40;;;22.50;99.90;;;;;;5012824;28;20040;-68
2021/05/17 09:21:03;;;;;;;13.00;2.92;;;22.20;99.90;;;;;;5017553;28;20060;-68
2021/05/17 09:24:07;;;;;;;14.82;3.00;;;21.60;99.90;;;;;;5025972;28;20040;-68
2021/05/17 09:27:21;;;;;;;12.60;3.10;;;21.80;99.90;;;;;;5032296;28;20037;-68
2021/05/17 09:30:25;;;;;;;12.27;2.65;;;22.20;99.90;;;;;;5027741;28;20592;-68
2021/05/17 09:33:39;;;;;;;15.43;3.45;;;22.30;99.90;;;;;;5019247;28;20424;-69
2021/05/17 09:36:44;;;;;;;17.92;3.08;;;22.40;99.90;;;;;;5016256;28;20049;-68
2021/05/17 09:39:53;;;;;;;14.18;2.90;;;23.80;99.90;;;;;;5013809;28;20422;-68
2021/05/17 09:43:04;;;;;;;15.18;3.47;;;25.10;99.90;;;;;;5010999;28;20053;-68
2021/05/17 09:46:09;;;;;;;17.17;3.05;;;25.90;99.10;;;;;;5012965;28;20037;-68
2021/05/17 09:49:13;;;;;;;13.68;3.08;;;26.50;98.40;;;;;;5012820;28;20048;-67
2021/05/17 09:52:29;;;;;;;15.43;2.97;;;28.60;98.50;;;;;;5011594;28;20041;-68
2021/05/17 09:55:44;;;;;;;11.98;3.67;;;30.90;94.20;;;;;;5011780;28;20052;-69
2021/05/17 09:59:00;;;;;;;14.95;4.22;;;31.00;92.80;;;;;;5011608;28;20053;-68
2021/05/17 10:02:05;;;;;;;21.63;3.00;;;29.70;92.50;;;;;;5015100;28;20104;-68
2021/05/17 10:05:20;;;;;;;18.05;4.10;;;28.20;92.20;;;;;;5031605;28;20060;-68
2021/05/17 10:08:24;;;;;;;17.92;3.72;;;28.00;93.60;;;;;;5030838;28;20049;-68
2021/05/17 10:11:30;;;;;;;13.70;3.60;;;27.50;93.50;;;;;;5032039;28;20495;-68
2021/05/17 10:14:35;;;;;;;21.27;10.35;;;26.30;93.80;;;;;;5031717;28;20587;-68
2021/05/17 10:17:40;;;;;;;26.20;8.65;;;25.20;95.00;;;;;;5032235;28;20052;-68
2021/05/17 10:20:45;;;;;;;20.58;4.15;;;26.40;95.20;;;;;;5031230;28;20503;-67
2021/05/17 10:23:50;;;;;;;16.98;3.97;;;23.70;94.00;;;;;;5030605;28;20048;-68
2021/05/17 10:26:54;;;;;;;21.63;3.92;;;21.80;96.90;;;;;;5031667;28;20053;-67
2021/05/17 10:30:08;;;;;;;16.67;3.22;;;21.30;98.80;;;;;;5031015;28;20052;-68
2021/05/17 10:33:20;;;;;;;21.45;3.30;;;21.20;98.50;;;;;;5027775;28;20088;-68
2021/05/17 10:36:47;;;;;;;21.02;3.40;;;19.60;99.90;;;;;;5031301;28;20057;-68
2021/05/17 10:40:02;;;;;;;18.25;4.00;;;19.30;99.90;;;;;;5030340;28;20384;-68
2021/05/17 10:43:34;;;;;;;13.95;2.95;;;19.90;99.90;;;;;;5031009;28;20048;-67
2021/05/17 10:46:42;;;;;;;18.92;3.80;;;20.60;99.30;;;;;;5031189;28;20040;-67
2021/05/17 10:49:46;;;;;;;19.13;3.08;;;21.80;98.90;;;;;;5030907;28;20052;-68
2021/05/17 10:52:50;;;;;;;20.13;4.88;;;25.30;97.30;;;;;;5030681;28;20037;-68
2021/05/17 10:55:57;;;;;;;13.18;5.22;;;28.80;94.70;;;;;;5031013;28;20046;-69
2021/05/17 11:02:30;;;;;;;13.48;2.70;;;24.70;90.70;;;;;;5023000;28;20045;-67
2021/05/17 11:05:34;;;;;;;16.65;2.97;;;23.70;93.60;;;;;;5011393;28;20045;-67
2021/05/17 11:08:48;;;;;;;15.18;2.92;;;23.70;93.30;;;;;;5028645;28;20041;-67
2021/05/17 11:11:52;;;;;;;13.02;3.35;;;25.20;95.00;;;;;;5029946;28;20388;-68
2021/05/17 11:15:14;;;;;;;19.65;7.40;;;28.00;92.70;;;;;;5017863;28;20036;-68
2021/05/17 11:18:21;;;;;;;14.48;3.10;;;27.30;92.40;;;;;;5024193;28;20045;-67
2021/05/17 11:21:27;;;;;;;18.42;6.07;;;23.50;91.80;;;;;;5016991;28;20491;-67
2021/05/17 11:24:37;;;;;;;23.48;9.20;;;24.30;94.60;;;;;;5030624;28;20048;-67
2021/05/17 11:27:47;;;;;;;14.23;3.60;;;24.50;94.20;;;;;;5030154;28;20052;-67
2021/05/17 11:31:03;;;;;;;28.20;12.63;;;22.00;94.00;;;;;;5015121;28;20049;-68
2021/05/17 11:34:13;;;;;;;23.08;11.63;;;22.40;96.10;;;;;;5009545;28;20053;-68
2021/05/17 11:37:18;;;;;;;34.10;14.93;;;23.80;95.90;;;;;;5011800;28;20049;-67
2021/05/17 11:40:28;;;;;;;24.58;10.80;;;24.10;95.90;;;;;;5013106;28;20049;-67
2021/05/17 11:43:42;;;;;;;17.15;4.65;;;25.10;94.30;;;;;;5010461;28;20065;-68
2021/05/17 11:46:54;;;;;;;15.88;3.38;;;26.50;93.80;;;;;;5009048;28;20053;-67
2021/05/17 11:49:59;;;;;;;13.45;2.53;;;26.90;92.90;;;;;;5017275;28;20064;-68
2021/05/17 11:53:11;;;;;;;10.63;2.65;;;28.40;91.50;;;;;;5008423;28;20200;-69
2021/05/17 11:56:16;;;;;;;12.52;2.80;;;30.30;91.10;;;;;;5017015;28;20069;-68
2021/05/17 11:59:25;;;;;;;14.40;2.83;;;31.60;89.30;;;;;;5020475;28;20068;-68
2021/05/17 12:02:30;;;;;;;11.93;2.80;;;29.40;87.10;;;;;;5006565;28;20049;-68
2021/05/17 12:05:35;;;;;;;14.05;2.75;;;27.00;90.50;;;;;;5013203;28;20095;-69
2021/05/17 12:08:39;;;;;;;14.23;3.08;;;26.30;91.70;;;;;;5014286;28;20037;-68
2021/05/17 12:11:49;;;;;;;14.38;3.17;;;25.60;92.10;;;;;;4988535;28;20049;-69
2021/05/17 12:15:05;;;;;;;11.90;2.58;;;25.00;91.90;;;;;;5016794;28;20064;-68
2021/05/17 12:18:10;;;;;;;12.93;3.05;;;25.80;91.50;;;;;;5014156;28;20072;-67
2021/05/17 12:21:15;;;;;;;12.68;3.45;;;25.70;91.90;;;;;;5017428;28;20068;-68
2021/05/17 12:24:27;;;;;;;13.02;2.95;;;26.10;92.20;;;;;;5026589;28;20040;-69
2021/05/17 12:27:32;;;;;;;;;;;26.60;91.70;;;;;;5018221;28;20388;-67
2021/05/17 12:30:36;;;;;;;12.40;3.25;;;24.80;92.60;;;;;;5011348;28;19932;-67
2021/05/17 12:33:41;;;;;;;10.23;2.55;;;25.80;93.00;;;;;;5006133;28;20396;-68
2021/05/17 12:36:50;;;;;;;15.55;3.00;;;26.90;93.20;;;;;;5004269;28;20040;-67
2021/05/17 12:40:20;;;;;;;13.63;2.80;;;27.50;91.40;;;;;;5015101;28;20065;-68
2021/05/17 12:43:26;;;;;;;13.93;3.30;;;27.60;91.30;;;;;;5013655;28;20535;-68
2021/05/17 12:46:40;;;;;;;16.25;3.13;;;27.30;91.70;;;;;;5012601;28;20045;-67
2021/05/17 12:49:54;;;;;;;16.70;3.10;;;26.30;92.50;;;;;;5012495;28;20823;-68
2021/05/17 12:53:10;;;;;;;12.32;2.92;;;25.30;92.90;;;;;;5022477;28;20050;-68
2021/05/17 12:56:31;;;;;;;11.00;2.80;;;24.50;95.10;;;;;;5014940;28;20037;-68
2021/05/17 12:59:45;;;;;;;18.85;4.93;;;23.90;93.80;;;;;;5029761;28;20059;-67
2021/05/17 13:03:30;;;;;;;14.82;4.20;;;24.30;94.20;;;;;;5028865;28;20056;-67
2021/05/17 13:06:35;;;;;;;11.52;2.60;;;24.90;92.70;;;;;;5008868;28;20511;-68
2021/05/17 13:09:40;;;;;;;11.00;2.58;;;23.70;93.50;;;;;;5023568;28;20049;-67
2021/05/17 13:12:54;;;;;;;20.02;7.60;;;23.30;93.80;;;;;;5024781;28;20037;-68
2021/05/17 13:16:02;;;;;;;18.95;3.55;;;21.40;95.90;;;;;;5019034;28;20052;-68
2021/05/17 13:33:06;;;;;;;18.08;3.50;;;20.00;99.30;;;;;;5016571;28;20049;-67
2021/05/17 13:36:15;;;;;;;16.45;3.33;;;19.50;99.90;;;;;;5025974;28;20060;-67
2021/05/17 13:39:19;;;;;;;63.13;31.95;;;18.90;99.90;;;;;;5030692;28;20049;-68
2021/05/17 13:42:24;;;;;;;15.43;3.30;;;18.90;99.90;;;;;;5025958;28;20052;-69
2021/05/17 13:45:28;;;;;;;15.20;4.25;;;19.00;99.90;;;;;;5025366;28;20061;-68
2021/05/17 13:48:32;;;;;;;13.57;2.30;;;19.30;99.90;;;;;;5021930;28;20052;-68
2021/05/17 13:51:37;;;;;;;21.02;5.85;;;19.70;98.60;;;;;;5026701;28;20048;-69
2021/05/17 13:54:41;;;;;;;38.80;19.20;;;20.10;98.10;;;;;;5031625;28;20506;-68
2021/05/17 13:57:51;;;;;;;27.05;7.65;;;20.40;98.50;;;;;;5022021;28;20044;-68
2021/05/17 14:00:55;;;;;;;26.33;11.18;;;20.40;98.10;;;;;;5031971;28;20054;-68
2021/05/17 14:03:59;;;;;;;25.13;8.30;;;20.10;98.20;;;;;;5031783;28;20063;-68
2021/05/17 14:07:03;;;;;;;74.78;33.22;;;19.90;98.50;;;;;;5031609;28;20040;-68
2021/05/17 14:10:09;;;;;;;16.90;4.60;;;20.60;99.90;;;;;;5017766;28;20404;-69
2021/05/17 14:13:13;;;;;;;26.42;8.10;;;20.70;98.30;;;;;;5031553;28;20045;-69
2021/05/17 14:16:17;;;;;;;13.73;2.67;;;20.70;98.20;;;;;;5031798;28;20048;-68
2021/05/17 14:19:22;;;;;;;16.90;2.70;;;20.80;97.20;;;;;;5031181;28;20064;-68
2021/05/17 14:22:28;;;;;;;16.55;3.25;;;20.60;98.20;;;;;;5031314;28;20048;-69
2021/05/17 14:25:33;;;;;;;23.17;5.75;;;20.60;98.20;;;;;;5031110;28;20388;-68
2021/05/17 14:28:44;;;;;;;25.48;8.70;;;20.50;97.80;;;;;;5022101;28;20052;-69
2021/05/17 14:31:49;;;;;;;23.17;7.10;;;20.90;98.20;;;;;;5020040;28;20048;-68
2021/05/17 14:34:54;;;;;;;13.13;3.95;;;21.10;98.70;;;;;;5017521;28;20044;-68
2021/05/17 14:37:58;;;;;;;28.35;9.45;;;21.10;98.50;;;;;;5028444;28;20040;-69
2021/05/17 14:41:03;;;;;;;17.77;3.03;;;20.70;98.10;;;;;;5011459;28;20365;-69
2021/05/17 14:44:07;;;;;;;27.33;6.03;;;20.60;98.10;;;;;;5029090;28;20485;-70
2021/05/17 14:47:12;;;;;;;20.77;4.88;;;20.50;98.10;;;;;;5026957;28;20461;-68
2021/05/17 14:50:16;;;;;;;18.58;3.40;;;20.10;97.30;;;;;;5020476;28;20041;-69
2021/05/17 14:53:21;;;;;;;41.22;18.38;;;19.90;98.30;;;;;;5027559;28;20507;-68
2021/05/17 14:56:25;;;;;;;37.42;13.30;;;19.70;98.80;;;;;;4995437;28;20044;-69
2021/05/17 14:59:30;;;;;;;22.45;6.70;;;19.50;99.90;;;;;;5023883;28;20053;-69
2021/05/17 15:02:34;;;;;;;16.77;3.50;;;19.70;99.90;;;;;;5029540;28;20044;-68
2021/05/17 15:05:39;;;;;;;14.13;2.83;;;19.90;99.20;;;;;;5020705;28;20041;-67
2021/05/17 15:08:44;;;;;;;18.10;2.90;;;20.00;98.50;;;;;;5020134;28;20231;-69
2021/05/17 15:11:48;;;;;;;14.95;2.78;;;19.90;98.60;;;;;;5014580;28;20045;-68
2021/05/17 15:14:52;;;;;;;12.45;2.67;;;19.90;99.20;;;;;;5009690;28;20037;-68
2021/05/17 15:17:57;;;;;;;9.27;2.72;;;19.90;99.60;;;;;;5013661;28;20552;-68
2021/05/17 15:21:03;;;;;;;19.48;2.78;;;20.10;99.90;;;;;;5015787;28;20053;-68
2021/05/17 15:24:08;;;;;;;17.73;3.38;;;20.30;99.80;;;;;;5014941;28;20052;-67
2021/05/17 15:27:13;;;;;;;23.45;3.90;;;20.30;99.50;;;;;;5009845;28;20044;-68
2021/05/17 15:30:18;;;;;;;20.08;3.22;;;20.20;99.90;;;;;;5025077;28;20040;-68
2021/05/17 15:33:23;;;;;;;21.27;3.30;;;20.30;99.90;;;;;;5024851;28;20037;-68
2021/05/17 15:36:29;;;;;;;18.02;3.38;;;20.80;99.90;;;;;;5011235;28;20056;-68
2021/05/17 15:39:33;;;;;;;16.10;3.33;;;20.90;99.10;;;;;;5026251;28;20060;-68
2021/05/17 15:42:37;;;;;;;23.92;3.92;;;20.70;99.60;;;;;;5027691;28;20041;-67
2021/05/17 15:45:42;;;;;;;15.93;2.78;;;20.50;99.50;;;;;;5029008;28;20056;-68
2021/05/17 15:48:46;;;;;;;16.83;3.33;;;20.30;99.00;;;;;;5020234;28;20045;-69
2021/05/17 15:51:51;;;;;;;21.25;4.15;;;20.20;99.70;;;;;;5017187;28;20045;-69
2021/05/17 15:54:56;;;;;;;18.40;3.58;;;20.10;99.20;;;;;;5016546;28;20041;-68
2021/05/17 15:58:00;;;;;;;16.85;3.55;;;19.90;99.30;;;;;;5011569;28;20049;-68
2021/05/17 16:01:06;;;;;;;19.75;4.68;;;19.80;99.70;;;;;;5013673;28;20052;-68
2021/05/17 16:04:11;;;;;;;16.85;3.05;;;19.40;99.60;;;;;;5020508;28;20511;-68
2021/05/17 16:07:14;;;;;;;15.30;3.20;;;19.20;99.90;;;;;;5026547;28;20040;-68
2021/05/17 16:10:20;;;;;;;18.38;3.40;;;19.10;99.90;;;;;;5022161;28;20507;-68
2021/05/17 16:16:59;;;;;;;19.48;4.32;;;19.50;99.60;;;;;;5014138;28;20037;-69
2021/05/17 16:23:27;;;;;;;18.10;2.92;;;18.70;99.90;;;;;;5009854;28;19920;-68
2021/05/17 16:26:31;;;;;;;21.50;4.35;;;18.80;99.90;;;;;;5002014;28;20061;-68
2021/05/17 16:29:37;;;;;;;15.77;2.92;;;19.00;99.90;;;;;;5010526;28;20470;-68
2021/05/17 16:32:41;;;;;;;17.05;3.42;;;19.10;99.90;;;;;;5011776;28;20032;-68
2021/05/17 16:35:46;;;;;;;15.82;2.83;;;19.10;99.80;;;;;;5012326;28;20061;-68
2021/05/17 16:38:50;;;;;;;15.05;2.53;;;18.80;98.60;;;;;;5013083;28;20311;-68
2021/05/17 16:41:53;;;;;;;22.40;3.20;;;18.40;99.80;;;;;;5008899;28;20049;-68
2021/05/17 16:44:59;;;;;;;14.57;2.42;;;18.60;99.90;;;;;;5015164;28;20792;-68
2021/05/17 16:48:04;;;;;;;12.52;2.53;;;18.70;99.90;;;;;;5018917;28;20045;-66
2021/05/17 16:51:09;;;;;;;13.50;2.40;;;18.70;99.90;;;;;;5017428;28;20056;-67
2021/05/17 16:54:16;;;;;;;16.67;2.45;;;18.60;99.80;;;;;;5016798;28;20041;-68
2021/05/17 16:57:21;;;;;;;17.70;2.78;;;18.60;99.90;;;;;;4983998;28;20420;-69